Hovedside
METAR-TAF:

METAR-TAF

Lufthavner :

Sjeremetjevo internasjonale lufthavn

Moskva-Sjeremetjevo, Russland

breddegrad: 55-58N, lengdegrad: 037-25E, høyde over havet: 190 m

Gjeldene værobservasjon

Denne rapporten ble laget for 16 minutter siden, klokken 15:30 UTC
Vind 12 kt fra Øst-sørøst
Temperatur -1°C
Luftfuktighet 69%
Trykk 1043 hPa
Sikt 10 km eller mer
Overskyet i en høyde av 4800 ft

METAR: UUEE 201530Z 11006MPS 9999 OVC048 M01/M06 Q1043 R06R/CLRD62 R06C/CLRD62 R06L/190057 NOSIG

Tid: 18:46 (15:46 UTC)

Varsel

Denne rapporten ble laget for 1 time og 46 minutter siden, klokken 14:00 UTC
Varsel gyldig fra 20. klokken 15 UTC til 21. klokken 15 UTC
Vind 12 kt fra Øst-sørøst med vindkast opp mot 23 kt
Sikt 10 km eller mer
Brutte skyer i en høyde av 1100 ft

TAF: UUEE 201400Z 2015/2115 12006G12MPS 9999 BKN011 TXM01/2015Z TNM05/2106Z

Værobservasjoner og værvarsel for over 4000 flyplasser (METAR- og TAF-rapporter).

Tilgjengelige stasjoner er representert av de røde og gule prikkene på kartet.

Hold musepekeren over prikken for å se navnet på stasjonen.

Klikk så for å se værobservasjoner og -varsler.

For å forandre kartet kan du klikke på den grønne knappen med svart kryss for å zoome inn, på den grønne knappen med strek for å zoome ut, eller på de grønne pilene for å se tilstøtende kart.


METAR-TAF: